Concord, Minnesota
Current Conditions -  °F | °C
As of 6:13 PM on Friday 28 Nov 2014 (Local Time) from KTOB Reporting Station
Clear Clear  
Wind Chill: 16°   Ceiling: Unl
Heat Index: 25°   Visibility: 10mi
Dew Point: 21°   Wind: 8mph
Humidity: 86%   Direction: 110°ESE
Pressure: 29.8"   Gusts: NA
Location:  44.1528°N, 92.8919°W
Report Text: KTOB 290013Z AUTO 11007KT 10SM CLR M04/M06 A2980 RMK AO2
Loading
Personal Weather Stations






























Interactive Weather Map New forecast layout! Learn more

10-Day Weather Forecast

Advertisements
Track Severe Weather on mobile